Time;durP1;ratioP1;P1;durP2;ratioP2;P2;SDS_P1;SDS_P2;PMS_P1;PMS_P2;Temp;Humidity;BMP_temperature;BMP_pressure;BME280_temperature;BME280_humidity;BME280_pressure;Samples;Min_cycle;Max_cycle;Signal;HPM_P1;HPM_P2
2023/04/11 00:02:24;;;;;;;36.90;26.30;;;;;;;5.02;79.52;99998.84;220496;1256;140662;-68
2023/04/11 00:07:28;;;;;;;;;;;;;;;4.97;79.34;99997.66;219743;1256;140300;-68
2023/04/11 00:12:32;;;;;;;40.10;25.90;;;;;;;4.84;79.34;99990.91;218326;1257;126265;-68
2023/04/11 00:17:36;;;;;;;46.90;24.80;;;;;;;4.76;79.35;99984.21;218736;1259;140647;-68
2023/04/11 00:22:42;;;;;;;42.80;26.10;;;;;;;4.64;79.52;99979.99;218379;1256;141288;-67
2023/04/11 00:27:47;;;;;;;48.10;25.00;;;;;;;4.57;79.45;99973.73;218466;1257;141623;-68
2023/04/11 00:32:52;;;;;;;46.70;28.80;;;;;;;4.51;79.73;99971.81;219539;1257;139322;-69
2023/04/11 00:37:57;;;;;;;37.40;26.00;;;;;;;4.51;79.70;99964.42;219318;1257;140029;-68
2023/04/11 00:43:01;;;;;;;39.40;24.90;;;;;;;4.42;79.54;99962.39;218592;1259;140642;-67
2023/04/11 00:48:05;;;;;;;35.70;23.30;;;;;;;4.33;79.71;99959.02;217842;1259;139737;-66
2023/04/11 00:53:13;;;;;;;57.00;33.20;;;;;;;4.27;79.84;99948.20;218434;1257;139737;-66
2023/04/11 00:58:17;;;;;;;58.40;31.70;;;;;;;4.28;80.32;99944.55;217981;1259;140493;-66
2023/04/11 01:03:21;;;;;;;52.00;31.60;;;;;;;4.28;80.44;99937.98;218872;1257;140741;-66
2023/04/11 01:08:26;;;;;;;52.30;30.30;;;;;;;4.30;80.57;99929.38;217726;1259;140354;-66
2023/04/11 01:13:32;;;;;;;42.80;29.00;;;;;;;4.24;80.17;99925.56;218503;1257;139982;-69
2023/04/11 01:18:36;;;;;;;48.60;31.00;;;;;;;4.15;80.42;99919.79;218303;1257;140340;-67
2023/04/11 01:23:41;;;;;;;47.00;29.30;;;;;;;4.07;80.31;99918.94;218583;1257;141442;-67
2023/04/11 01:28:45;;;;;;;48.50;31.20;;;;;;;4.02;80.49;99915.59;219347;1256;140860;-66
2023/04/11 01:33:49;;;;;;;45.80;30.00;;;;;;;4.04;80.77;99909.00;217715;1257;153404;-66
2023/04/11 01:38:54;;;;;;;42.00;28.90;;;;;;;4.10;81.06;99898.11;218954;1256;141574;-65
2023/04/11 01:44:00;;;;;;;46.00;28.90;;;;;;;4.04;80.73;99883.84;218098;1257;140623;-66
2023/04/11 01:49:05;;;;;;;44.70;29.70;;;;;;;4.02;80.88;99883.17;220544;1257;141374;-67
2023/04/11 01:54:09;;;;;;;43.20;29.10;;;;;;;4.05;81.26;99880.41;219927;1255;140789;-66
2023/04/11 01:59:13;;;;;;;43.70;29.10;;;;;;;4.05;81.21;99872.41;220490;1257;139314;-68
2023/04/11 02:04:18;;;;;;;46.30;30.20;;;;;;;4.04;81.18;99868.55;218350;1257;140831;-67
2023/04/11 02:09:23;;;;;;;40.60;25.30;;;;;;;4.00;81.01;99865.83;219442;1256;139921;-66
2023/04/11 02:14:40;;;;;;;41.50;24.90;;;;;;;4.02;81.39;99853.02;220130;1256;142985;-66
2023/04/11 02:19:45;;;;;;;37.40;24.90;;;;;;;4.03;81.21;99848.41;218977;1257;139619;-66
2023/04/11 02:24:50;;;;;;;28.90;21.40;;;;;;;3.96;80.88;99851.77;219980;1257;140423;-66
2023/04/11 02:29:54;;;;;;;44.90;26.60;;;;;;;3.90;80.84;99845.21;218683;1257;139389;-65
2023/04/11 02:35:01;;;;;;;29.70;22.20;;;;;;;3.79;80.84;99845.99;218784;1256;140093;-65
2023/04/11 02:40:06;;;;;;;27.70;19.20;;;;;;;3.65;80.83;99835.89;217816;1256;139974;-65
2023/04/11 02:45:11;;;;;;;29.20;21.00;;;;;;;3.55;81.36;99828.93;218603;1257;140856;-65
2023/04/11 02:50:16;;;;;;;28.10;18.60;;;;;;;3.50;81.58;99831.14;217645;1258;139657;-66
2023/04/11 02:55:22;;;;;;;32.20;22.60;;;;;;;3.51;82.01;99828.68;217725;1257;140281;-66
2023/04/11 03:00:28;;;;;;;34.20;22.50;;;;;;;3.53;82.32;99822.10;217737;1259;140447;-66
2023/04/11 03:05:35;;;;;;;29.60;22.30;;;;;;;3.54;82.17;99814.45;217998;1257;140326;-65
2023/04/11 03:10:39;;;;;;;31.80;21.40;;;;;;;3.52;82.15;99809.92;219248;1256;139433;-68
2023/04/11 03:15:44;;;;;;;34.30;23.10;;;;;;;3.49;82.01;99807.33;217848;1259;140895;-65
2023/04/11 03:20:49;;;;;;;33.50;22.90;;;;;;;3.48;82.36;99799.94;218896;1257;139508;-66
2023/04/11 03:25:54;;;;;;;27.80;20.00;;;;;;;3.47;82.33;99798.10;217735;1257;139687;-65
2023/04/11 03:30:58;;;;;;;27.40;20.60;;;;;;;3.41;81.86;99802.66;219219;1259;140530;-67
2023/04/11 03:36:02;;;;;;;24.20;18.20;;;;;;;3.38;82.37;99796.06;217853;1257;140499;-66
2023/04/11 03:41:06;;;;;;;22.40;15.90;;;;;;;3.37;82.05;99793.41;218085;1257;139864;-66
2023/04/11 03:46:10;;;;;;;28.80;19.80;;;;;;;3.25;82.19;99786.73;220654;1257;140025;-66
2023/04/11 03:51:15;;;;;;;23.90;18.50;;;;;;;3.22;82.42;99779.05;220691;1257;140215;-66
2023/04/11 03:56:20;;;;;;;29.80;17.70;;;;;;;3.27;82.79;99769.33;220562;1259;140782;-66
2023/04/11 04:01:25;;;;;;;29.30;20.30;;;;;;;3.33;82.70;99761.63;220380;1257;141591;-65
2023/04/11 04:06:30;;;;;;;22.70;17.00;;;;;;;3.45;82.78;99756.00;219052;1259;140134;-65
2023/04/11 04:11:36;;;;;;;23.00;16.80;;;;;;;3.57;82.93;99757.17;219212;1259;140951;-65
2023/04/11 04:16:41;;;;;;;20.20;15.30;;;;;;;3.69;83.27;99750.42;218287;1257;140825;-65
2023/04/11 04:21:46;;;;;;;22.20;15.80;;;;;;;3.86;83.60;99748.59;218551;1256;139491;-65
2023/04/11 04:26:52;;;;;;;21.20;16.20;;;;;;;4.01;83.62;99751.77;218161;1257;140511;-65
2023/04/11 04:31:56;;;;;;;23.60;17.60;;;;;;;4.19;83.66;99748.84;219247;1256;140332;-66
2023/04/11 04:37:02;;;;;;;22.30;16.10;;;;;;;4.36;83.71;99739.86;217846;1257;139732;-65
2023/04/11 04:42:08;;;;;;;18.70;15.60;;;;;;;4.55;84.24;99732.83;217847;1259;139894;-65
2023/04/11 04:47:14;;;;;;;19.90;16.60;;;;;;;4.77;84.67;99725.42;218119;1256;140599;-64
2023/04/11 04:52:18;;;;;;;22.50;16.90;;;;;;;4.99;84.86;99722.15;218333;1257;139871;-63
2023/04/11 04:57:23;;;;;;;20.90;17.40;;;;;;;5.21;84.80;99717.00;218846;1256;140453;-63
2023/04/11 05:02:28;;;;;;;17.10;13.90;;;;;;;5.46;85.42;99708.99;217860;1260;139599;-61
2023/04/11 05:07:32;;;;;;;24.60;16.30;;;;;;;5.70;85.56;99697.41;218812;1257;139865;-64
2023/04/11 05:12:38;;;;;;;26.00;17.60;;;;;;;5.97;86.01;99686.86;218056;1260;140181;-65
2023/04/11 05:17:47;;;;;;;24.00;15.50;;;;;;;6.29;86.03;99676.09;218741;1257;139847;-66
2023/04/11 05:22:53;;;;;;;16.30;13.60;;;;;;;6.64;86.29;99661.78;219078;1259;139855;-64
2023/04/11 05:27:57;;;;;;;18.80;15.00;;;;;;;6.98;86.40;99655.60;218222;1257;140702;-63
2023/04/11 05:33:01;;;;;;;16.80;13.90;;;;;;;7.30;85.53;99647.73;218520;1260;140816;-64
2023/04/11 05:38:05;;;;;;;22.40;13.30;;;;;;;7.59;85.89;99645.13;220153;1257;140497;-64
2023/04/11 05:43:13;;;;;;;15.40;12.80;;;;;;;7.85;85.26;99641.87;218299;1256;140465;-64
2023/04/11 05:48:19;;;;;;;19.20;12.30;;;;;;;8.09;84.88;99631.00;219144;1257;139816;-64
2023/04/11 05:53:23;;;;;;;15.60;10.30;;;;;;;8.29;84.79;99631.44;220031;1258;140545;-65
2023/04/11 05:58:28;;;;;;;12.60;10.70;;;;;;;8.51;84.56;99626.23;219001;1257;140961;-65
2023/04/11 06:03:33;;;;;;;16.40;9.70;;;;;;;8.80;84.18;99622.30;218648;1259;140500;-64
2023/04/11 06:08:37;;;;;;;13.70;11.10;;;;;;;9.08;83.91;99617.12;218292;1260;139633;-67
2023/04/11 06:13:41;;;;;;;13.40;11.80;;;;;;;9.26;83.42;99611.10;218544;1258;139943;-67
2023/04/11 06:18:45;;;;;;;13.60;10.90;;;;;;;9.42;83.29;99598.69;218610;1260;140344;-67
2023/04/11 06:23:49;;;;;;;16.00;11.90;;;;;;;9.66;83.03;99600.45;218865;1258;140100;-66
2023/04/11 06:28:54;;;;;;;14.70;9.90;;;;;;;9.94;82.80;99591.27;217880;1257;140319;-70
2023/04/11 06:34:00;;;;;;;17.60;9.50;;;;;;;10.29;82.51;99587.63;217691;1257;139369;-72
2023/04/11 06:39:04;;;;;;;16.10;10.70;;;;;;;10.66;82.28;99579.25;218084;1260;140841;-70
2023/04/11 06:44:08;;;;;;;13.40;9.30;;;;;;;11.30;81.42;99575.42;217898;1260;140062;-67
2023/04/11 06:49:12;;;;;;;14.60;8.80;;;;;;;11.92;80.48;99577.23;218273;1256;140680;-67
2023/04/11 06:54:17;;;;;;;10.40;9.10;;;;;;;12.42;79.55;99564.71;218341;1257;139672;-68
2023/04/11 06:59:21;;;;;;;9.30;8.00;;;;;;;12.84;78.65;99553.75;218277;1259;141277;-70
2023/04/11 07:04:27;;;;;;;8.60;7.50;;;;;;;13.19;77.75;99536.93;218377;1256;139946;-71
2023/04/11 07:09:32;;;;;;;9.30;7.00;;;;;;;13.37;76.58;99530.16;218379;1256;140917;-67
2023/04/11 07:14:36;;;;;;;7.00;6.30;;;;;;;13.34;75.08;99527.14;218073;1260;139717;-67
2023/04/11 07:19:40;;;;;;;8.40;7.20;;;;;;;13.37;75.00;99523.90;218078;1257;138887;-69
2023/04/11 07:24:45;;;;;;;8.00;6.10;;;;;;;13.72;74.67;99525.49;218766;1256;139452;-70
2023/04/11 07:29:49;;;;;;;7.80;5.80;;;;;;;13.99;73.50;99521.23;218914;1254;139530;-71
2023/04/11 07:34:54;;;;;;;7.10;6.40;;;;;;;14.32;73.79;99515.22;217922;1257;139330;-68
2023/04/11 07:39:58;;;;;;;7.50;6.70;;;;;;;14.36;71.60;99509.35;220025;1256;139687;-79
2023/04/11 07:45:02;;;;;;;7.00;6.40;;;;;;;14.26;70.93;99504.21;219132;1257;139224;-68
2023/04/11 07:50:07;;;;;;;7.50;6.70;;;;;;;14.19;70.36;99489.60;220471;1257;139651;-65
2023/04/11 07:55:12;;;;;;;7.80;6.00;;;;;;;14.26;69.83;99478.10;219703;1256;138891;-70
2023/04/11 08:00:22;;;;;;;7.80;5.60;;;;;;;14.28;69.26;99472.91;217760;1260;141098;-69
2023/04/11 08:05:26;;;;;;;6.70;6.10;;;;;;;14.31;68.99;99459.51;218377;1257;139816;-70
2023/04/11 08:10:31;;;;;;;6.10;5.40;;;;;;;14.39;68.58;99463.48;218105;1257;139104;-68
2023/04/11 08:15:37;;;;;;;7.10;6.40;;;;;;;14.70;68.94;99460.84;217905;1257;138820;-70
2023/04/11 08:20:42;;;;;;;5.40;4.60;;;;;;;15.15;69.22;99451.48;217678;1260;140227;-69
2023/04/11 08:25:47;;;;;;;7.40;5.50;;;;;;;15.69;68.89;99449.73;218158;1256;150909;-69
2023/04/11 08:30:54;;;;;;;7.20;6.50;;;;;;;15.97;67.74;99450.36;217809;1256;139620;-67
2023/04/11 08:35:59;;;;;;;6.40;5.80;;;;;;;16.13;66.92;99437.54;217648;1258;138964;-65
2023/04/11 08:41:03;;;;;;;9.40;6.50;;;;;;;16.16;66.20;99421.38;217960;1254;139418;-71
2023/04/11 08:46:08;;;;;;;5.40;4.80;;;;;;;16.18;66.30;99420.14;217857;1258;140058;-72
2023/04/11 08:51:13;;;;;;;6.60;5.80;;;;;;;16.20;66.01;99422.38;217895;1254;772208;-67
2023/04/11 08:56:17;;;;;;;6.60;5.90;;;;;;;16.17;65.35;99415.29;217773;1257;139869;-72
2023/04/11 09:01:32;;;;;;;8.50;5.80;;;;;;;16.27;65.30;99406.17;217462;1257;138993;-69
2023/04/11 09:06:38;;;;;;;9.90;7.00;;;;;;;16.34;64.93;99395.80;217914;1257;139907;-72
2023/04/11 09:11:51;;;;;;;9.40;6.00;;;;;;;16.30;64.21;99400.45;218064;1256;138915;-72
2023/04/11 09:17:12;;;;;;;6.70;5.70;;;;;;;16.17;63.48;99394.09;217948;1256;139855;-70
2023/04/11 09:22:17;;;;;;;5.70;5.00;;;;;;;16.20;63.80;99392.13;218866;1257;140457;-70
2023/04/11 09:27:23;;;;;;;4.90;4.40;;;;;;;16.30;63.27;99383.73;218224;1256;139657;-70
2023/04/11 09:32:31;;;;;;;4.50;4.00;;;;;;;16.34;62.12;99373.64;219538;1256;141664;-71
2023/04/11 09:37:54;;;;;;;4.80;4.40;;;;;;;16.14;61.05;99371.48;220581;1255;139569;-69
2023/04/11 09:43:00;;;;;;;6.40;3.90;;;;;;;16.16;61.16;99361.73;219608;1254;139654;-69
2023/04/11 09:48:05;;;;;;;3.70;3.40;;;;;;;16.32;60.36;99348.09;217658;1259;139931;-71
2023/04/11 09:53:10;;;;;;;5.50;3.70;;;;;;;16.36;59.89;99333.05;218022;1255;139319;-70
2023/04/11 09:58:14;;;;;;;4.40;4.00;;;;;;;16.56;60.00;99333.52;218602;1256;139163;-68
2023/04/11 10:03:21;;;;;;;13.20;5.10;;;;;;;16.79;59.87;99326.98;218557;1257;140788;-68
2023/04/11 10:08:37;;;;;;;5.10;3.30;;;;;;;16.90;59.49;99317.75;218046;1254;139968;-69
2023/04/11 10:13:46;;;;;;;6.00;3.30;;;;;;;16.84;58.59;99306.46;218612;1255;140332;-71
2023/04/11 10:18:53;;;;;;;12.60;5.90;;;;;;;16.69;58.16;99300.00;218087;1256;139562;-72
2023/04/11 10:24:11;;;;;;;3.10;2.70;;;;;;;16.49;57.68;99300.02;217731;1259;234353;-70
2023/04/11 10:29:41;;;;;;;4.20;2.40;;;;;;;16.51;57.49;99291.06;217767;1257;139279;-70
2023/04/11 10:34:54;;;;;;;19.00;7.90;;;;;;;16.57;57.22;99285.17;217796;1257;139464;-70
2023/04/11 10:40:11;;;;;;;2.00;1.80;;;;;;;16.61;56.43;99277.12;217912;1257;139841;-68
2023/04/11 10:45:27;;;;;;;5.10;2.40;;;;;;;16.62;56.18;99270.65;218389;1256;140192;-66
2023/04/11 10:50:32;;;;;;;2.00;1.80;;;;;;;16.77;56.31;99258.15;218978;1257;139387;-66
2023/04/11 10:55:46;;;;;;;2.40;2.20;;;;;;;16.81;55.76;99253.20;217702;1257;140404;-66
2023/04/11 11:01:00;;;;;;;2.90;1.70;;;;;;;16.92;56.02;99240.14;219000;1256;139585;-65
2023/04/11 11:06:09;;;;;;;24.00;13.20;;;;;;;16.86;54.87;99241.72;218125;1256;140236;-66
2023/04/11 11:11:15;;;;;;;1.60;1.50;;;;;;;16.75;54.86;99226.36;219211;1256;139418;-70
2023/04/11 11:16:21;;;;;;;3.50;3.10;;;;;;;16.91;55.03;99227.29;218777;1256;139770;-69
2023/04/11 11:21:27;;;;;;;2.30;2.20;;;;;;;17.03;54.63;99218.20;219583;1256;139297;-67
2023/04/11 11:33:19;;;;;;;1.80;1.70;;;;;;;17.54;54.15;99207.55;214620;1293;683558;-69
2023/04/11 11:38:29;;;;;;;2.00;1.80;;;;;;;17.62;53.72;99199.84;216284;1269;138274;-68
2023/04/11 11:43:36;;;;;;;2.70;2.50;;;;;;;17.65;53.28;99200.83;215722;1267;927618;-68
2023/04/11 11:49:01;;;;;;;6.60;4.30;;;;;;;17.64;52.60;99196.46;216938;1266;139174;-69
2023/04/11 11:54:09;;;;;;;2.40;2.10;;;;;;;17.31;52.27;99201.05;217213;1266;138372;-66
2023/04/11 11:59:12;;;;;;;2.40;2.00;;;;;;;17.02;52.11;99196.73;220185;1257;138427;-67
2023/04/11 12:04:18;;;;;;;4.50;3.20;;;;;;;16.92;52.50;99188.71;220302;1257;140003;-66
2023/04/11 12:09:20;;;;;;;3.90;2.60;;;;;;;16.97;52.53;99189.73;219217;1260;139233;-68
2023/04/11 12:14:23;;;;;;;3.50;2.70;;;;;;;17.10;52.33;99178.93;219586;1259;139046;-70
2023/04/11 12:19:26;;;;;;;3.80;2.40;;;;;;;17.01;51.76;99176.21;218764;1260;139103;-69
2023/04/11 12:24:29;;;;;;;3.20;2.90;;;;;;;17.01;52.43;99165.50;218402;1257;138184;-74
2023/04/11 12:29:32;;;;;;;2.70;2.50;;;;;;;17.11;52.05;99159.33;218288;1257;138697;-70
2023/04/11 12:34:36;;;;;;;4.40;2.70;;;;;;;17.01;51.85;99148.11;217263;1257;139843;-71
2023/04/11 12:39:39;;;;;;;3.00;2.60;;;;;;;16.82;51.34;99137.42;217311;1260;138590;-71
2023/04/11 12:44:42;;;;;;;7.20;3.60;;;;;;;16.66;51.96;99133.55;217983;1261;140327;-67
2023/04/11 12:49:46;;;;;;;4.70;3.10;;;;;;;16.52;51.85;99134.63;217649;1257;138449;-71
2023/04/11 12:54:49;;;;;;;3.80;3.50;;;;;;;16.46;52.15;99129.76;217222;1264;139404;-69
2023/04/11 12:59:54;;;;;;;3.70;3.50;;;;;;;16.39;52.31;99119.45;217327;1260;138683;-67
2023/04/11 13:04:59;;;;;;;4.70;4.20;;;;;;;16.26;52.30;99114.75;217268;1260;140458;-74
2023/04/11 13:10:06;;;;;;;4.20;3.40;;;;;;;16.36;52.96;99105.29;217689;1261;139667;-72
2023/04/11 13:15:11;;;;;;;4.40;4.00;;;;;;;16.26;52.72;99103.90;217176;1262;139285;-68
2023/04/11 13:20:14;;;;;;;8.90;3.70;;;;;;;15.95;52.69;99102.69;217163;1260;138808;-72
2023/04/11 13:25:17;;;;;;;4.00;3.60;;;;;;;15.96;53.34;99097.89;217195;1257;139440;-72
2023/04/11 13:30:20;;;;;;;4.80;4.10;;;;;;;16.09;53.37;99091.19;217264;1263;138504;-70
2023/04/11 13:35:23;;;;;;;4.30;3.90;;;;;;;16.02;53.22;99089.77;218218;1260;140356;-71
2023/04/11 13:40:28;;;;;;;4.00;3.60;;;;;;;15.93;53.47;99075.55;217591;1258;160876;-70
2023/04/11 13:45:31;;;;;;;7.40;4.00;;;;;;;15.87;53.40;99068.75;217256;1261;138992;-70
2023/04/11 13:50:34;;;;;;;5.90;4.90;;;;;;;15.76;53.51;99059.56;218343;1254;139877;-71
2023/04/11 13:55:37;;;;;;;6.50;4.30;;;;;;;15.81;53.47;99044.90;218193;1256;138386;-69
2023/04/11 14:00:40;;;;;;;5.50;5.00;;;;;;;15.91;53.52;99033.13;220671;1254;139083;-70
2023/04/11 14:05:42;;;;;;;5.10;4.60;;;;;;;15.71;53.28;99031.66;220269;1254;140844;-70
2023/04/11 14:10:45;;;;;;;8.40;5.30;;;;;;;15.49;53.47;99037.42;217660;1260;139228;-71
2023/04/11 14:15:48;;;;;;;6.10;5.20;;;;;;;15.19;53.83;99037.63;218733;1254;139545;-69
2023/04/11 14:21:07;;;;;;;5.10;4.60;;;;;;;14.99;54.28;99033.87;217870;1257;138796;-69
2023/04/11 14:26:10;;;;;;;6.60;5.60;;;;;;;14.80;54.42;99032.62;218906;1257;204037;-68
2023/04/11 14:31:12;;;;;;;7.20;4.40;;;;;;;14.66;54.77;99023.42;217724;1257;138956;-70
2023/04/11 14:36:15;;;;;;;5.30;4.80;;;;;;;14.62;55.14;99021.05;217679;1257;138863;-67
2023/04/11 14:41:18;;;;;;;5.00;4.50;;;;;;;14.61;55.25;99024.01;217697;1257;138833;-68
2023/04/11 14:46:20;;;;;;;6.30;5.60;;;;;;;14.49;55.68;99026.80;217815;1257;138432;-77
2023/04/11 14:51:27;;;;;;;5.90;4.30;;;;;;;14.17;56.48;99025.08;218608;1260;139131;-71
2023/04/11 14:56:32;;;;;;;6.80;4.80;;;;;;;14.00;57.03;99025.27;217547;1260;139436;-71
2023/04/11 15:01:37;;;;;;;6.00;5.00;;;;;;;13.93;57.28;99021.59;218679;1256;139562;-70
2023/04/11 15:06:45;;;;;;;6.20;4.30;;;;;;;13.99;57.69;99020.17;218009;1260;138555;-71
2023/04/11 15:11:50;;;;;;;5.20;4.70;;;;;;;14.05;57.70;99021.23;217661;1257;138566;-71
2023/04/11 15:16:54;;;;;;;5.60;5.00;;;;;;;13.99;57.87;99012.56;217715;1258;154267;-69
2023/04/11 15:22:03;;;;;;;6.00;5.00;;;;;;;13.98;58.13;99020.55;218428;1256;138781;-69
2023/04/11 15:27:09;;;;;;;8.80;6.50;;;;;;;13.94;58.85;99039.96;217994;1258;139341;-68
2023/04/11 15:32:13;;;;;;;8.00;5.10;;;;;;;13.42;59.71;99051.96;218014;1258;138998;-67
2023/04/11 15:37:19;;;;;;;18.10;10.70;;;;;;;12.82;61.39;99034.61;218374;1256;139718;-68
2023/04/11 15:42:25;;;;;;;16.40;8.10;;;;;;;12.57;62.65;99035.53;219224;1256;139768;-70
2023/04/11 15:47:28;;;;;;;14.00;10.60;;;;;;;12.35;63.80;99052.16;219396;1256;142432;-68
2023/04/11 15:52:31;;;;;;;16.80;11.40;;;;;;;12.12;64.58;99060.05;218135;1256;140284;-68
2023/04/11 15:57:38;;;;;;;20.10;13.20;;;;;;;11.97;64.95;99060.45;220568;1255;139539;-68
2023/04/11 16:02:46;;;;;;;;;;;;;;;11.85;65.80;99069.10;219998;1255;141129;-68
2023/04/11 16:07:50;;;;;;;11.30;9.20;;;;;;;11.68;65.97;99077.15;220719;1255;126955;-68
2023/04/11 16:12:55;;;;;;;11.60;7.40;;;;;;;11.57;66.00;99085.79;220534;1256;139622;-67
2023/04/11 16:18:01;;;;;;;8.00;6.70;;;;;;;11.41;65.88;99094.95;220506;1255;139740;-68
2023/04/11 16:23:07;;;;;;;;;;;;;;;11.25;66.06;99104.16;218315;1255;139548;-68
2023/04/11 16:28:13;;;;;;;10.70;7.30;;;;;;;11.08;66.56;99113.66;218159;1256;125605;-66
2023/04/11 16:33:17;;;;;;;7.00;5.00;;;;;;;10.99;66.73;99125.74;219149;1255;139109;-66
2023/04/11 16:38:20;;;;;;;7.60;5.50;;;;;;;10.84;66.81;99124.27;218377;1255;140279;-67
2023/04/11 16:43:24;;;;;;;9.30;5.00;;;;;;;10.69;67.02;99126.13;217824;1256;139143;-66
2023/04/11 16:48:30;;;;;;;5.30;4.70;;;;;;;10.55;67.36;99129.43;217880;1256;140881;-66
2023/04/11 16:53:34;;;;;;;10.10;5.60;;;;;;;10.40;67.33;99138.91;218395;1256;139480;-71
2023/04/11 16:58:38;;;;;;;7.50;5.30;;;;;;;10.24;67.68;99148.55;217951;1256;139344;-68
2023/04/11 17:03:42;;;;;;;7.30;6.60;;;;;;;10.12;67.87;99149.11;217773;1256;139041;-68
2023/04/11 17:08:46;;;;;;;6.30;5.40;;;;;;;10.03;68.19;99146.98;217664;1256;139874;-67
2023/04/11 17:13:54;;;;;;;13.30;8.70;;;;;;;9.95;68.26;99154.95;217960;1256;140171;-69
2023/04/11 17:18:58;;;;;;;16.90;9.60;;;;;;;9.93;68.65;99157.58;219154;1254;139497;-68
2023/04/11 17:24:03;;;;;;;17.60;11.10;;;;;;;9.90;68.76;99160.35;217938;1256;140253;-70
2023/04/11 17:29:10;;;;;;;12.20;8.00;;;;;;;9.85;69.02;99171.40;218104;1256;139899;-68
2023/04/11 17:34:15;;;;;;;8.50;7.00;;;;;;;9.73;69.23;99177.69;217974;1256;140456;-68
2023/04/11 17:39:20;;;;;;;61.90;38.40;;;;;;;9.63;69.42;99184.92;217821;1254;140167;-64
2023/04/11 17:44:27;;;;;;;9.60;8.20;;;;;;;9.57;69.46;99181.79;220814;1253;140585;-73
2023/04/11 17:49:35;;;;;;;9.70;6.20;;;;;;;9.53;69.67;99184.30;218182;1257;143617;-68
2023/04/11 17:54:45;;;;;;;6.20;5.60;;;;;;;9.45;69.74;99185.73;218517;1256;140435;-70
2023/04/11 17:59:55;;;;;;;8.80;4.30;;;;;;;9.40;70.01;99191.58;219927;1255;140422;-69
2023/04/11 18:05:04;;;;;;;5.30;4.60;;;;;;;9.39;70.03;99203.73;220280;1255;140146;-68
2023/04/11 18:10:26;;;;;;;4.60;4.10;;;;;;;9.33;70.16;99216.17;217507;1256;140094;-66
2023/04/11 18:15:32;;;;;;;5.40;4.90;;;;;;;9.25;70.41;99223.58;219596;1256;139915;-69
2023/04/11 18:20:34;;;;;;;4.50;4.10;;;;;;;9.23;70.62;99228.63;218408;1255;140290;-69
2023/04/11 18:25:37;;;;;;;4.30;3.80;;;;;;;9.19;71.00;99228.31;217514;1256;139091;-69
2023/04/11 18:30:41;;;;;;;3.50;3.20;;;;;;;9.10;71.13;99227.61;217807;1255;139888;-69
2023/04/11 18:35:47;;;;;;;4.20;3.60;;;;;;;9.04;71.36;99231.33;218231;1255;139694;-70
2023/04/11 18:40:54;;;;;;;4.40;2.80;;;;;;;9.01;71.47;99243.34;218328;1256;141843;-72
2023/04/11 18:46:01;;;;;;;3.00;2.70;;;;;;;8.90;71.51;99247.90;217795;1258;140598;-68
2023/04/11 18:51:05;;;;;;;5.30;3.80;;;;;;;8.75;72.02;99250.15;218114;1256;139684;-69
2023/04/11 18:56:09;;;;;;;6.60;4.40;;;;;;;8.66;72.27;99258.18;217678;1256;140531;-67
2023/04/11 19:01:13;;;;;;;9.60;4.70;;;;;;;8.61;72.84;99258.52;217896;1259;139144;-68
2023/04/11 19:06:22;;;;;;;6.30;4.30;;;;;;;8.59;73.08;99262.43;217836;1256;139263;-70
2023/04/11 19:11:26;;;;;;;7.20;4.60;;;;;;;8.55;73.36;99264.39;218381;1255;139705;-66
2023/04/11 19:16:30;;;;;;;5.40;3.90;;;;;;;8.46;73.61;99261.23;217761;1253;139407;-67
2023/04/11 19:21:34;;;;;;;6.60;4.50;;;;;;;8.36;73.94;99263.43;218660;1258;140733;-67
2023/04/11 19:26:37;;;;;;;5.00;4.30;;;;;;;8.29;74.37;99264.58;219074;1255;140163;-66
2023/04/11 19:31:41;;;;;;;5.10;4.60;;;;;;;8.22;74.95;99266.40;218616;1255;139612;-66
2023/04/11 19:36:46;;;;;;;7.10;5.60;;;;;;;8.20;74.89;99263.01;219205;1256;139864;-68
2023/04/11 19:41:50;;;;;;;8.00;4.40;;;;;;;8.18;75.03;99262.59;217837;1256;140366;-69
2023/04/11 19:46:53;;;;;;;6.60;5.60;;;;;;;8.11;75.18;99255.52;220446;1255;139769;-69
2023/04/11 19:51:57;;;;;;;6.90;4.70;;;;;;;8.06;75.55;99246.64;220576;1255;139306;-69
2023/04/11 19:57:02;;;;;;;8.40;4.00;;;;;;;8.07;75.72;99250.65;220310;1255;140237;-68
2023/04/11 20:02:09;;;;;;;5.70;4.40;;;;;;;8.08;75.96;99252.41;219352;1255;234502;-70
2023/04/11 20:07:14;;;;;;;6.30;3.60;;;;;;;8.06;76.01;99255.30;218640;1255;139491;-70
2023/04/11 20:12:18;;;;;;;3.80;3.20;;;;;;;8.01;75.78;99254.73;217703;1256;139927;-70
2023/04/11 20:17:23;;;;;;;6.00;3.80;;;;;;;7.94;76.20;99253.79;217489;1255;139991;-71
2023/04/11 20:22:27;;;;;;;6.50;3.70;;;;;;;7.90;76.38;99257.52;218279;1258;139243;-71
2023/04/11 20:27:30;;;;;;;5.00;3.90;;;;;;;7.82;76.51;99256.11;218695;1256;140098;-68
2023/04/11 20:32:33;;;;;;;3.20;2.90;;;;;;;7.77;76.80;99253.22;218314;1255;139224;-68
2023/04/11 20:37:38;;;;;;;4.90;3.90;;;;;;;7.71;77.13;99256.30;217530;1258;140127;-68
2023/04/11 20:42:46;;;;;;;7.20;4.10;;;;;;;7.69;77.01;99256.00;217722;1258;247488;-69
2023/04/11 20:47:51;;;;;;;5.60;4.40;;;;;;;7.66;77.47;99265.85;217859;1260;140054;-67
2023/04/11 20:52:55;;;;;;;7.10;4.00;;;;;;;7.59;77.22;99266.63;217907;1257;140325;-68
2023/04/11 20:57:59;;;;;;;5.40;3.50;;;;;;;7.56;77.50;99266.92;217840;1256;139896;-69
2023/04/11 21:03:03;;;;;;;6.50;4.80;;;;;;;7.49;77.80;99276.23;217679;1256;139641;-67
2023/04/11 21:08:07;;;;;;;6.30;4.10;;;;;;;7.49;78.11;99273.27;218221;1255;139571;-69
2023/04/11 21:13:11;;;;;;;6.00;4.60;;;;;;;7.49;78.23;99272.94;218198;1256;140575;-69
2023/04/11 21:18:14;;;;;;;5.40;4.70;;;;;;;7.51;78.57;99278.25;217650;1256;139314;-69
2023/04/11 21:23:18;;;;;;;6.60;4.30;;;;;;;7.52;78.28;99275.41;217889;1258;161236;-69
2023/04/11 21:28:22;;;;;;;6.70;4.40;;;;;;;7.51;78.66;99271.52;219112;1255;140902;-68
2023/04/11 21:33:25;;;;;;;6.00;4.60;;;;;;;7.48;78.84;99265.60;218210;1255;139612;-68
2023/04/11 21:38:28;;;;;;;6.90;5.00;;;;;;;7.45;78.53;99261.98;220134;1256;139800;-69
2023/04/11 21:43:32;;;;;;;7.70;5.70;;;;;;;7.43;79.06;99268.08;220452;1255;139821;-68
2023/04/11 21:48:35;;;;;;;6.20;4.70;;;;;;;7.44;78.99;99265.45;220440;1255;140091;-68
2023/04/11 21:53:39;;;;;;;7.80;5.40;;;;;;;7.48;79.18;99269.45;219780;1255;138927;-68
2023/04/11 21:58:43;;;;;;;14.30;6.90;;;;;;;7.50;79.42;99268.02;219210;1255;140518;-68
2023/04/11 22:03:49;;;;;;;7.50;5.80;;;;;;;7.51;79.28;99263.92;219054;1256;140396;-67
2023/04/11 22:08:53;;;;;;;8.60;5.00;;;;;;;7.48;79.63;99261.77;218135;1255;140623;-67
2023/04/11 22:13:57;;;;;;;8.20;6.30;;;;;;;7.46;79.71;99256.41;218646;1255;139949;-67
2023/04/11 22:19:01;;;;;;;7.90;6.40;;;;;;;7.47;79.82;99258.46;218520;1255;139838;-67
2023/04/11 22:24:08;;;;;;;12.40;6.70;;;;;;;7.47;79.79;99256.60;218000;1256;139395;-66
2023/04/11 22:29:12;;;;;;;11.10;8.50;;;;;;;7.43;79.97;99256.81;219076;1256;139818;-67
2023/04/11 22:34:15;;;;;;;16.40;8.80;;;;;;;7.38;79.63;99256.10;218169;1256;139368;-67
2023/04/11 22:39:20;;;;;;;16.30;9.50;;;;;;;7.31;79.98;99259.85;218146;1257;139137;-66
2023/04/11 22:44:23;;;;;;;12.70;9.40;;;;;;;7.26;80.12;99259.84;217990;1256;139455;-67
2023/04/11 22:49:26;;;;;;;13.20;8.70;;;;;;;7.23;80.14;99261.66;217626;1256;139170;-68
2023/04/11 22:54:29;;;;;;;14.60;9.70;;;;;;;7.23;80.62;99265.38;217899;1256;139202;-66
2023/04/11 22:59:32;;;;;;;16.60;10.10;;;;;;;7.23;80.70;99263.14;218657;1256;140831;-67
2023/04/11 23:04:35;;;;;;;13.10;9.00;;;;;;;7.20;80.59;99261.92;218915;1258;139792;-66
2023/04/11 23:09:38;;;;;;;19.00;10.50;;;;;;;7.14;81.14;99259.91;218265;1256;140399;-66
2023/04/11 23:14:41;;;;;;;15.90;10.10;;;;;;;7.09;81.02;99261.15;218483;1257;140532;-69
2023/04/11 23:19:45;;;;;;;12.90;10.30;;;;;;;7.05;81.03;99260.83;217814;1257;140786;-66
2023/04/11 23:24:48;;;;;;;13.30;11.30;;;;;;;7.02;81.17;99258.48;218910;1255;140176;-70
2023/04/11 23:29:53;;;;;;;13.60;9.10;;;;;;;7.01;81.31;99259.11;219474;1256;139959;-67